AFR1003 LGIR-LFPG
Flight info
| Callsign | AFR1003 |
|---|---|
| Flight time | N/A |
| Altitude | 38000 |
| Route | EPALO M749 DIRMI UL613 KOR UL53 KRK UL995 TIGRA DCT PUNSA DCT UNKIR DCT GIVRI DCT TINIL |
| Aircraft | A320/M-SDE3FGHIRWY/LB1 |
Departure
| Time | N/A |
|---|---|
| Airport | Heraklion International Nikos Kazantzakis Airport (LGIR) |
Arrival
| Time | 2026-05-01 09:14 |
|---|---|
| Airport | Charles de Gaulle International Airport (LFPG) |
| Time | Latitude | Longitude | Altitude | Speed | Heading |
|---|---|---|---|---|---|
| 2026-05-01 07:23 | 42.24485 | 15.46454 | 38300 ft | 432 kts | 309° |
| 2026-05-01 07:24 | 42.30046 | 15.36908 | 38301 ft | 432 kts | 309° |
| 2026-05-01 07:24 | 42.33752 | 15.30528 | 38300 ft | 433 kts | 308° |
| 2026-05-01 07:25 | 42.37466 | 15.24121 | 38303 ft | 433 kts | 309° |
| 2026-05-01 07:25 | 42.41157 | 15.17737 | 38305 ft | 434 kts | 309° |
| 2026-05-01 07:26 | 42.44873 | 15.11299 | 38305 ft | 434 kts | 309° |
| 2026-05-01 07:26 | 42.48569 | 15.04881 | 38311 ft | 434 kts | 309° |
| 2026-05-01 07:27 | 42.52287 | 14.98422 | 38309 ft | 434 kts | 309° |
| 2026-05-01 07:27 | 42.55967 | 14.92017 | 38309 ft | 434 kts | 309° |
| 2026-05-01 07:28 | 42.59678 | 14.85537 | 38313 ft | 434 kts | 309° |
| 2026-05-01 07:28 | 42.63355 | 14.79099 | 38312 ft | 434 kts | 309° |
| 2026-05-01 07:29 | 42.67063 | 14.72590 | 38259 ft | 435 kts | 309° |
| 2026-05-01 07:29 | 42.70741 | 14.66121 | 38289 ft | 435 kts | 309° |
| 2026-05-01 07:30 | 42.74416 | 14.59641 | 38269 ft | 436 kts | 309° |
| 2026-05-01 07:30 | 42.78105 | 14.53122 | 38275 ft | 436 kts | 310° |
| 2026-05-01 07:31 | 42.81788 | 14.46599 | 38280 ft | 437 kts | 310° |
| 2026-05-01 07:32 | 42.91004 | 14.30209 | 38282 ft | 437 kts | 309° |
| 2026-05-01 07:33 | 42.96551 | 14.20295 | 38287 ft | 439 kts | 309° |
| 2026-05-01 07:33 | 43.02067 | 14.10397 | 38293 ft | 438 kts | 309° |
| 2026-05-01 07:34 | 43.07565 | 14.00485 | 38296 ft | 438 kts | 310° |
| 2026-05-01 07:35 | 43.11238 | 13.93826 | 38294 ft | 438 kts | 310° |
| 2026-05-01 07:35 | 43.15586 | 13.88328 | 38294 ft | 431 kts | 334° |
| 2026-05-01 07:36 | 43.20279 | 13.83342 | 38297 ft | 440 kts | 304° |
| 2026-05-01 07:36 | 43.21495 | 13.79460 | 38294 ft | 447 kts | 290° |
| 2026-05-01 07:36 | 43.22536 | 13.75487 | 38294 ft | 440 kts | 301° |
| 2026-05-01 07:37 | 43.27417 | 13.65010 | 38286 ft | 436 kts | 309° |
| 2026-05-01 07:37 | 43.30969 | 13.58291 | 38281 ft | 435 kts | 310° |
| 2026-05-01 07:38 | 43.34542 | 13.51683 | 38288 ft | 434 kts | 310° |
| 2026-05-01 07:39 | 43.39953 | 13.41733 | 38285 ft | 433 kts | 310° |
| 2026-05-01 07:39 | 43.45333 | 13.31832 | 38292 ft | 433 kts | 310° |
| 2026-05-01 07:40 | 43.48927 | 13.25201 | 38280 ft | 432 kts | 310° |
| 2026-05-01 07:40 | 43.52522 | 13.18554 | 38295 ft | 432 kts | 310° |
| 2026-05-01 07:41 | 43.56085 | 13.11953 | 38300 ft | 432 kts | 310° |
| 2026-05-01 07:42 | 43.61423 | 13.02035 | 38303 ft | 431 kts | 310° |
| 2026-05-01 07:42 | 43.64963 | 12.95438 | 38290 ft | 430 kts | 310° |
| 2026-05-01 07:43 | 43.68521 | 12.88794 | 38291 ft | 428 kts | 310° |
| 2026-05-01 07:43 | 43.73790 | 12.78926 | 38306 ft | 428 kts | 310° |
| 2026-05-01 07:44 | 43.80793 | 12.65759 | 38316 ft | 427 kts | 310° |
| 2026-05-01 07:45 | 43.84308 | 12.59128 | 38303 ft | 425 kts | 310° |
| 2026-05-01 07:45 | 43.87780 | 12.52564 | 38318 ft | 424 kts | 310° |
| 2026-05-01 07:46 | 43.91248 | 12.45993 | 38335 ft | 424 kts | 310° |
| 2026-05-01 07:47 | 43.96433 | 12.36138 | 38322 ft | 423 kts | 310° |
| 2026-05-01 07:47 | 43.99892 | 12.29546 | 38331 ft | 424 kts | 310° |
| 2026-05-01 07:48 | 44.05082 | 12.19626 | 38323 ft | 424 kts | 310° |
| 2026-05-01 07:48 | 44.08538 | 12.13004 | 38341 ft | 424 kts | 310° |
| 2026-05-01 07:49 | 44.13694 | 12.03094 | 38345 ft | 425 kts | 310° |
| 2026-05-01 07:50 | 44.17159 | 11.96415 | 38353 ft | 424 kts | 309° |
| 2026-05-01 07:50 | 44.22307 | 11.86464 | 38365 ft | 425 kts | 310° |
| 2026-05-01 07:51 | 44.25756 | 11.79776 | 38342 ft | 423 kts | 310° |
| 2026-05-01 07:52 | 44.30885 | 11.69806 | 38337 ft | 425 kts | 310° |
| 2026-05-01 07:52 | 44.34321 | 11.63106 | 38347 ft | 425 kts | 310° |
| 2026-05-01 07:53 | 44.39463 | 11.53052 | 38358 ft | 424 kts | 310° |
| 2026-05-01 07:53 | 44.42873 | 11.46366 | 38342 ft | 425 kts | 310° |
| 2026-05-01 07:55 | 44.51443 | 11.29491 | 38355 ft | 427 kts | 309° |
| 2026-05-01 07:56 | 44.60014 | 11.12513 | 38361 ft | 428 kts | 309° |
| 2026-05-01 07:57 | 44.65146 | 11.02301 | 38388 ft | 430 kts | 309° |
| 2026-05-01 07:58 | 44.71971 | 10.88663 | 38401 ft | 428 kts | 309° |
| 2026-05-01 07:59 | 44.78763 | 10.75027 | 38394 ft | 431 kts | 309° |
| 2026-05-01 08:00 | 44.89037 | 10.54277 | 38408 ft | 432 kts | 309° |
| 2026-05-01 08:01 | 44.95888 | 10.40355 | 38426 ft | 434 kts | 309° |
| 2026-05-01 08:02 | 45.01035 | 10.29850 | 38438 ft | 433 kts | 308° |
| 2026-05-01 08:03 | 45.06158 | 10.19357 | 38440 ft | 433 kts | 308° |
| 2026-05-01 08:03 | 45.11265 | 10.08861 | 38451 ft | 435 kts | 308° |
| 2026-05-01 08:04 | 45.18090 | 9.94770 | 38451 ft | 436 kts | 308° |
| 2026-05-01 08:05 | 45.23205 | 9.84164 | 38450 ft | 437 kts | 308° |
| 2026-05-01 08:06 | 45.28342 | 9.73471 | 38470 ft | 438 kts | 308° |
| 2026-05-01 08:07 | 45.35199 | 9.59138 | 38471 ft | 439 kts | 308° |
| 2026-05-01 08:08 | 45.40325 | 9.48376 | 38477 ft | 440 kts | 308° |
| 2026-05-01 08:09 | 45.47184 | 9.33910 | 38484 ft | 443 kts | 307° |
| 2026-05-01 08:09 | 45.50637 | 9.26600 | 38484 ft | 444 kts | 307° |
| 2026-05-01 08:10 | 45.57499 | 9.12017 | 38486 ft | 445 kts | 307° |
| 2026-05-01 08:11 | 45.64380 | 8.97300 | 38496 ft | 447 kts | 307° |
| 2026-05-01 08:12 | 45.69519 | 8.86254 | 38487 ft | 447 kts | 307° |
| 2026-05-01 08:13 | 45.74684 | 8.75124 | 38487 ft | 447 kts | 307° |
| 2026-05-01 08:13 | 45.79802 | 8.64055 | 38488 ft | 447 kts | 306° |
| 2026-05-01 08:14 | 45.83234 | 8.56608 | 38487 ft | 448 kts | 306° |
| 2026-05-01 08:14 | 45.86641 | 8.49196 | 38488 ft | 448 kts | 306° |
| 2026-05-01 08:15 | 45.91746 | 8.38051 | 38489 ft | 448 kts | 306° |
| 2026-05-01 08:16 | 45.95157 | 8.30580 | 38495 ft | 449 kts | 305° |
| 2026-05-01 08:16 | 45.98586 | 8.23054 | 38490 ft | 448 kts | 305° |
| 2026-05-01 08:17 | 46.01983 | 8.15585 | 38341 ft | 451 kts | 305° |
| 2026-05-01 08:17 | 46.03691 | 8.11824 | 38449 ft | 448 kts | 305° |
| 2026-05-01 08:17 | 46.05382 | 8.08092 | 38350 ft | 448 kts | 305° |
| 2026-05-01 08:18 | 46.08597 | 8.00407 | 38406 ft | 451 kts | 298° |
| 2026-05-01 08:19 | 46.14044 | 7.84094 | 38416 ft | 452 kts | 297° |
| 2026-05-01 08:19 | 46.16765 | 7.75901 | 38195 ft | 453 kts | 297° |
| 2026-05-01 08:19 | 46.18100 | 7.71873 | 38386 ft | 451 kts | 297° |
| 2026-05-01 08:20 | 46.19447 | 7.67804 | 38567 ft | 451 kts | 297° |
| 2026-05-01 08:20 | 46.22152 | 7.59609 | 38480 ft | 454 kts | 297° |
| 2026-05-01 08:21 | 46.24865 | 7.51365 | 38467 ft | 455 kts | 297° |
| 2026-05-01 08:21 | 46.27556 | 7.43161 | 38451 ft | 455 kts | 297° |
| 2026-05-01 08:22 | 46.30255 | 7.34904 | 38441 ft | 456 kts | 296° |
| 2026-05-01 08:22 | 46.32993 | 7.26504 | 38472 ft | 457 kts | 296° |
| 2026-05-01 08:23 | 46.35690 | 7.18203 | 38478 ft | 457 kts | 296° |
| 2026-05-01 08:23 | 46.38390 | 7.09864 | 38471 ft | 457 kts | 296° |
| 2026-05-01 08:24 | 46.41082 | 7.01522 | 38474 ft | 458 kts | 296° |
| 2026-05-01 08:24 | 46.43788 | 6.93112 | 38473 ft | 458 kts | 296° |
| 2026-05-01 08:25 | 46.46468 | 6.84754 | 38469 ft | 459 kts | 296° |
| 2026-05-01 08:25 | 46.49160 | 6.76331 | 38459 ft | 459 kts | 296° |
| 2026-05-01 08:26 | 46.51821 | 6.67977 | 38440 ft | 460 kts | 296° |
| 2026-05-01 08:26 | 46.54494 | 6.59547 | 38432 ft | 461 kts | 296° |
| 2026-05-01 08:27 | 46.57173 | 6.51071 | 38428 ft | 461 kts | 296° |
| 2026-05-01 08:27 | 46.59847 | 6.42588 | 38428 ft | 461 kts | 296° |
| 2026-05-01 08:28 | 46.62503 | 6.34141 | 38427 ft | 463 kts | 295° |
| 2026-05-01 08:28 | 46.65181 | 6.25591 | 38435 ft | 463 kts | 295° |
| 2026-05-01 08:29 | 46.67794 | 6.17226 | 38430 ft | 463 kts | 295° |
| 2026-05-01 08:29 | 46.70431 | 6.08753 | 38432 ft | 464 kts | 295° |
| 2026-05-01 08:30 | 46.73090 | 6.00181 | 38411 ft | 464 kts | 295° |
| 2026-05-01 08:30 | 46.75762 | 5.91542 | 38413 ft | 465 kts | 295° |
| 2026-05-01 08:31 | 46.78410 | 5.82946 | 38401 ft | 466 kts | 295° |
| 2026-05-01 08:31 | 46.81669 | 5.74851 | 38412 ft | 466 kts | 311° |
| 2026-05-01 08:32 | 46.86528 | 5.68766 | 38397 ft | 463 kts | 331° |
| 2026-05-01 08:32 | 46.92152 | 5.64217 | 38396 ft | 462 kts | 333° |
| 2026-05-01 08:33 | 46.97804 | 5.59675 | 38392 ft | 463 kts | 333° |
| 2026-05-01 08:33 | 47.03404 | 5.55162 | 38396 ft | 463 kts | 333° |
| 2026-05-01 08:34 | 47.09076 | 5.50579 | 38390 ft | 464 kts | 333° |
| 2026-05-01 08:34 | 47.14697 | 5.46027 | 38393 ft | 463 kts | 333° |
| 2026-05-01 08:35 | 47.20357 | 5.41433 | 38394 ft | 459 kts | 333° |
| 2026-05-01 08:35 | 47.25882 | 5.36936 | 38310 ft | 450 kts | 333° |
| 2026-05-01 08:35 | 47.28592 | 5.34726 | 37762 ft | 447 kts | 332° |
| 2026-05-01 08:36 | 47.31294 | 5.32522 | 37154 ft | 445 kts | 332° |
| 2026-05-01 08:36 | 47.33995 | 5.30318 | 36524 ft | 445 kts | 332° |
| 2026-05-01 08:36 | 47.36732 | 5.28081 | 35890 ft | 448 kts | 333° |
| 2026-05-01 08:36 | 47.39423 | 5.25880 | 35229 ft | 451 kts | 333° |
| 2026-05-01 08:37 | 47.42162 | 5.23636 | 34676 ft | 451 kts | 333° |
| 2026-05-01 08:37 | 47.44920 | 5.21375 | 34153 ft | 449 kts | 333° |
| 2026-05-01 08:37 | 47.47621 | 5.19156 | 33696 ft | 445 kts | 333° |
| 2026-05-01 08:37 | 47.50296 | 5.16956 | 33205 ft | 443 kts | 333° |
| 2026-05-01 08:38 | 47.52990 | 5.14738 | 32699 ft | 440 kts | 333° |
| 2026-05-01 08:38 | 47.55635 | 5.12558 | 32201 ft | 437 kts | 333° |
| 2026-05-01 08:38 | 47.58246 | 5.10327 | 31694 ft | 435 kts | 328° |
| 2026-05-01 08:38 | 47.60669 | 5.07656 | 31191 ft | 434 kts | 321° |
| 2026-05-01 08:39 | 47.62957 | 5.04784 | 30685 ft | 432 kts | 321° |
| 2026-05-01 08:39 | 47.65229 | 5.01935 | 30177 ft | 429 kts | 321° |
| 2026-05-01 08:39 | 47.67503 | 4.99081 | 29680 ft | 425 kts | 321° |
| 2026-05-01 08:39 | 47.69746 | 4.96262 | 29172 ft | 423 kts | 321° |
| 2026-05-01 08:40 | 47.74176 | 4.90685 | 28353 ft | 412 kts | 321° |
| 2026-05-01 08:40 | 47.76334 | 4.87956 | 27794 ft | 414 kts | 321° |
| 2026-05-01 08:40 | 47.78529 | 4.85173 | 27309 ft | 413 kts | 321° |
| 2026-05-01 08:41 | 47.80692 | 4.82428 | 26874 ft | 411 kts | 321° |
| 2026-05-01 08:41 | 47.82843 | 4.79695 | 26436 ft | 409 kts | 321° |
| 2026-05-01 08:41 | 47.85019 | 4.76928 | 26000 ft | 407 kts | 321° |
| 2026-05-01 08:41 | 47.87159 | 4.74204 | 25569 ft | 406 kts | 321° |
| 2026-05-01 08:42 | 47.89273 | 4.71510 | 25155 ft | 403 kts | 321° |
| 2026-05-01 08:42 | 47.91396 | 4.68800 | 24728 ft | 402 kts | 321° |
| 2026-05-01 08:42 | 47.93509 | 4.66102 | 24299 ft | 401 kts | 321° |
| 2026-05-01 08:42 | 47.95622 | 4.63399 | 23884 ft | 399 kts | 321° |
| 2026-05-01 08:43 | 47.97703 | 4.60735 | 23463 ft | 397 kts | 321° |
| 2026-05-01 08:43 | 47.99806 | 4.58041 | 23048 ft | 396 kts | 321° |
| 2026-05-01 08:43 | 48.01876 | 4.55384 | 22631 ft | 394 kts | 321° |
| 2026-05-01 08:43 | 48.03929 | 4.52747 | 22224 ft | 392 kts | 320° |
| 2026-05-01 08:44 | 48.05991 | 4.50095 | 21815 ft | 390 kts | 320° |
| 2026-05-01 08:44 | 48.08031 | 4.47470 | 21412 ft | 387 kts | 320° |
| 2026-05-01 08:44 | 48.10070 | 4.44842 | 21001 ft | 385 kts | 320° |
| 2026-05-01 08:44 | 48.12078 | 4.42252 | 20602 ft | 382 kts | 320° |
| 2026-05-01 08:45 | 48.14099 | 4.39641 | 20203 ft | 380 kts | 320° |
| 2026-05-01 08:45 | 48.16105 | 4.37048 | 19809 ft | 377 kts | 320° |
| 2026-05-01 08:45 | 48.18072 | 4.34503 | 19412 ft | 375 kts | 319° |
| 2026-05-01 08:45 | 48.20000 | 4.32005 | 19030 ft | 373 kts | 319° |
| 2026-05-01 08:46 | 48.22003 | 4.29407 | 18648 ft | 370 kts | 319° |
| 2026-05-01 08:46 | 48.23851 | 4.27008 | 18281 ft | 368 kts | 319° |
| 2026-05-01 08:46 | 48.25776 | 4.24472 | 17906 ft | 367 kts | 316° |
| 2026-05-01 08:46 | 48.27477 | 4.21651 | 17531 ft | 364 kts | 309° |
| 2026-05-01 08:47 | 48.29067 | 4.18735 | 17153 ft | 361 kts | 309° |
| 2026-05-01 08:47 | 48.30643 | 4.15867 | 16792 ft | 360 kts | 309° |
| 2026-05-01 08:47 | 48.32227 | 4.12982 | 16493 ft | 354 kts | 309° |
| 2026-05-01 08:47 | 48.33776 | 4.10159 | 16299 ft | 344 kts | 309° |
| 2026-05-01 08:48 | 48.35265 | 4.07440 | 16048 ft | 337 kts | 309° |
| 2026-05-01 08:48 | 48.36756 | 4.04718 | 15773 ft | 333 kts | 309° |
| 2026-05-01 08:48 | 48.38208 | 4.02063 | 15476 ft | 331 kts | 309° |
| 2026-05-01 08:48 | 48.39669 | 3.99390 | 15187 ft | 330 kts | 309° |
| 2026-05-01 08:49 | 48.41134 | 3.96706 | 14872 ft | 329 kts | 309° |
| 2026-05-01 08:49 | 48.42582 | 3.94050 | 14569 ft | 327 kts | 309° |
| 2026-05-01 08:49 | 48.44009 | 3.91430 | 14274 ft | 326 kts | 309° |
| 2026-05-01 08:49 | 48.45432 | 3.88814 | 13984 ft | 324 kts | 309° |
| 2026-05-01 08:50 | 48.46854 | 3.86199 | 13677 ft | 322 kts | 309° |
| 2026-05-01 08:50 | 48.48262 | 3.83605 | 13388 ft | 320 kts | 309° |
| 2026-05-01 08:50 | 48.49675 | 3.81000 | 13102 ft | 319 kts | 309° |
| 2026-05-01 08:50 | 48.51057 | 3.78450 | 12810 ft | 317 kts | 309° |
| 2026-05-01 08:51 | 48.52456 | 3.75866 | 12526 ft | 315 kts | 309° |
| 2026-05-01 08:51 | 48.53813 | 3.73316 | 12282 ft | 310 kts | 306° |
| 2026-05-01 08:51 | 48.55004 | 3.70639 | 12098 ft | 308 kts | 302° |
| 2026-05-01 08:51 | 48.56171 | 3.67916 | 11918 ft | 308 kts | 303° |
| 2026-05-01 08:52 | 48.57335 | 3.65210 | 11752 ft | 307 kts | 303° |
| 2026-05-01 08:52 | 48.58491 | 3.62524 | 11596 ft | 306 kts | 303° |
| 2026-05-01 08:52 | 48.59640 | 3.59848 | 11438 ft | 305 kts | 303° |
| 2026-05-01 08:52 | 48.60798 | 3.57152 | 11276 ft | 304 kts | 303° |
| 2026-05-01 08:53 | 48.61934 | 3.54501 | 11149 ft | 299 kts | 303° |
| 2026-05-01 08:53 | 48.63050 | 3.51897 | 11028 ft | 298 kts | 303° |
| 2026-05-01 08:53 | 48.64182 | 3.49253 | 10911 ft | 298 kts | 303° |
| 2026-05-01 08:53 | 48.65318 | 3.46597 | 10785 ft | 297 kts | 303° |
| 2026-05-01 08:54 | 48.66435 | 3.43982 | 10680 ft | 296 kts | 303° |
| 2026-05-01 08:54 | 48.67548 | 3.41376 | 10563 ft | 296 kts | 303° |
| 2026-05-01 08:54 | 48.68653 | 3.38782 | 10441 ft | 295 kts | 303° |
| 2026-05-01 08:54 | 48.69779 | 3.36140 | 10329 ft | 294 kts | 303° |
| 2026-05-01 08:55 | 48.70881 | 3.33550 | 10218 ft | 291 kts | 302° |
| 2026-05-01 08:55 | 48.71967 | 3.30995 | 10119 ft | 290 kts | 302° |
| 2026-05-01 08:55 | 48.73074 | 3.28388 | 9992 ft | 290 kts | 302° |
| 2026-05-01 08:55 | 48.74162 | 3.25823 | 9875 ft | 289 kts | 302° |
| 2026-05-01 08:56 | 48.75246 | 3.23267 | 9768 ft | 288 kts | 302° |
| 2026-05-01 08:56 | 48.76330 | 3.20706 | 9652 ft | 288 kts | 302° |
| 2026-05-01 08:56 | 48.77414 | 3.18143 | 9539 ft | 288 kts | 302° |
| 2026-05-01 08:56 | 48.78486 | 3.15609 | 9429 ft | 288 kts | 302° |
| 2026-05-01 08:57 | 48.79560 | 3.13063 | 9323 ft | 287 kts | 302° |
| 2026-05-01 08:57 | 48.80632 | 3.10522 | 9203 ft | 287 kts | 302° |
| 2026-05-01 08:57 | 48.81716 | 3.07950 | 9096 ft | 287 kts | 302° |
| 2026-05-01 08:57 | 48.82786 | 3.05409 | 8991 ft | 286 kts | 302° |
| 2026-05-01 08:58 | 48.83863 | 3.02847 | 8876 ft | 286 kts | 302° |
| 2026-05-01 08:58 | 48.85045 | 3.00421 | 8777 ft | 286 kts | 312° |
| 2026-05-01 08:58 | 48.86393 | 2.98222 | 8650 ft | 285 kts | 312° |
| 2026-05-01 08:58 | 48.87732 | 2.96005 | 8541 ft | 285 kts | 312° |
| 2026-05-01 08:59 | 48.89064 | 2.93794 | 8437 ft | 284 kts | 312° |
| 2026-05-01 08:59 | 48.90387 | 2.91596 | 8321 ft | 284 kts | 311° |
| 2026-05-01 08:59 | 48.91726 | 2.89369 | 8203 ft | 283 kts | 311° |
| 2026-05-01 08:59 | 48.93010 | 2.87085 | 8096 ft | 282 kts | 301° |
| 2026-05-01 09:00 | 48.93644 | 2.84318 | 7993 ft | 279 kts | 272° |
| 2026-05-01 09:00 | 48.93552 | 2.81381 | 7880 ft | 277 kts | 264° |
| 2026-05-01 09:00 | 48.93390 | 2.78447 | 7777 ft | 276 kts | 264° |
| 2026-05-01 09:00 | 48.93235 | 2.75559 | 7666 ft | 276 kts | 264° |
| 2026-05-01 09:01 | 48.93078 | 2.72631 | 7560 ft | 276 kts | 264° |
| 2026-05-01 09:01 | 48.92922 | 2.69716 | 7446 ft | 276 kts | 264° |
| 2026-05-01 09:01 | 48.92767 | 2.66818 | 7334 ft | 276 kts | 264° |
| 2026-05-01 09:01 | 48.92610 | 2.63915 | 7228 ft | 275 kts | 264° |
| 2026-05-01 09:02 | 48.92454 | 2.61006 | 7125 ft | 275 kts | 264° |
| 2026-05-01 09:02 | 48.92297 | 2.58103 | 7018 ft | 274 kts | 264° |
| 2026-05-01 09:02 | 48.92139 | 2.55205 | 6907 ft | 274 kts | 264° |
| 2026-05-01 09:02 | 48.91981 | 2.52320 | 6805 ft | 273 kts | 264° |
| 2026-05-01 09:03 | 48.91823 | 2.49435 | 6692 ft | 273 kts | 264° |
| 2026-05-01 09:03 | 48.91665 | 2.46565 | 6581 ft | 273 kts | 264° |
| 2026-05-01 09:03 | 48.91506 | 2.43693 | 6477 ft | 272 kts | 264° |
| 2026-05-01 09:03 | 48.91347 | 2.40830 | 6379 ft | 271 kts | 264° |
| 2026-05-01 09:04 | 48.91190 | 2.38019 | 6276 ft | 271 kts | 264° |
| 2026-05-01 09:04 | 48.91031 | 2.35197 | 6167 ft | 270 kts | 264° |
| 2026-05-01 09:04 | 48.90882 | 2.32549 | 6071 ft | 270 kts | 264° |
| 2026-05-01 09:04 | 48.90723 | 2.29749 | 5969 ft | 270 kts | 263° |
| 2026-05-01 09:05 | 48.90562 | 2.26919 | 5866 ft | 269 kts | 264° |
| 2026-05-01 09:05 | 48.90400 | 2.24071 | 5759 ft | 269 kts | 264° |
| 2026-05-01 09:05 | 48.90237 | 2.21239 | 5646 ft | 269 kts | 264° |
| 2026-05-01 09:05 | 48.90074 | 2.18396 | 5546 ft | 268 kts | 264° |
| 2026-05-01 09:06 | 48.89911 | 2.15581 | 5442 ft | 268 kts | 264° |
| 2026-05-01 09:06 | 48.89757 | 2.12858 | 5342 ft | 268 kts | 266° |
| 2026-05-01 09:06 | 48.90076 | 2.10108 | 5233 ft | 272 kts | 297° |
| 2026-05-01 09:06 | 48.91383 | 2.08059 | 5213 ft | 274 kts | 333° |
| 2026-05-01 09:07 | 48.93214 | 2.07483 | 5204 ft | 273 kts | 7° |
| 2026-05-01 09:07 | 48.94936 | 2.08576 | 5208 ft | 264 kts | 43° |
| 2026-05-01 09:07 | 48.96002 | 2.10727 | 5218 ft | 247 kts | 59° |
| 2026-05-01 09:07 | 48.96858 | 2.12924 | 5205 ft | 234 kts | 66° |
| 2026-05-01 09:08 | 48.97339 | 2.15175 | 5207 ft | 219 kts | 86° |
| 2026-05-01 09:08 | 48.97442 | 2.17467 | 5163 ft | 211 kts | 89° |
| 2026-05-01 09:08 | 48.97490 | 2.19678 | 4995 ft | 208 kts | 89° |
| 2026-05-01 09:08 | 48.97536 | 2.21853 | 4840 ft | 206 kts | 89° |
| 2026-05-01 09:09 | 48.97613 | 2.24058 | 4634 ft | 207 kts | 87° |
| 2026-05-01 09:09 | 48.97720 | 2.26251 | 4360 ft | 210 kts | 86° |
| 2026-05-01 09:09 | 48.97815 | 2.28017 | 4105 ft | 214 kts | 86° |
| 2026-05-01 09:09 | 48.97937 | 2.30294 | 3758 ft | 217 kts | 86° |
| 2026-05-01 09:10 | 48.98053 | 2.32564 | 3419 ft | 214 kts | 86° |
| 2026-05-01 09:10 | 48.98165 | 2.34810 | 3126 ft | 208 kts | 86° |
| 2026-05-01 09:10 | 48.98272 | 2.36936 | 2883 ft | 199 kts | 86° |
| 2026-05-01 09:10 | 48.98377 | 2.39008 | 2640 ft | 192 kts | 86° |
| 2026-05-01 09:11 | 48.98481 | 2.41009 | 2409 ft | 183 kts | 87° |
| 2026-05-01 09:11 | 48.98577 | 2.42886 | 2128 ft | 174 kts | 87° |
| 2026-05-01 09:11 | 48.98669 | 2.44656 | 1896 ft | 163 kts | 88° |
| 2026-05-01 09:11 | 48.98754 | 2.46322 | 1689 ft | 156 kts | 88° |
| 2026-05-01 09:12 | 48.98838 | 2.47907 | 1488 ft | 142 kts | 87° |
| 2026-05-01 09:12 | 48.98911 | 2.49328 | 1309 ft | 132 kts | 88° |
| 2026-05-01 09:12 | 48.98986 | 2.50744 | 1128 ft | 133 kts | 87° |
| 2026-05-01 09:12 | 48.99059 | 2.52135 | 955 ft | 131 kts | 87° |
| 2026-05-01 09:13 | 48.99131 | 2.53498 | 782 ft | 129 kts | 86° |
| 2026-05-01 09:13 | 48.99202 | 2.54870 | 610 ft | 132 kts | 85° |
| 2026-05-01 09:13 | 48.99278 | 2.56249 | 430 ft | 130 kts | 86° |
| 2026-05-01 09:13 | 48.99347 | 2.57578 | 345 ft | 113 kts | 86° |
| 2026-05-01 09:14 | 48.99394 | 2.58467 | 333 ft | 55 kts | 84° |
| 2026-05-01 09:14 | 48.99415 | 2.58858 | 328 ft | 27 kts | 85° |
| 2026-05-01 09:14 | 48.99442 | 2.59184 | 325 ft | 35 kts | 67° |
| 2026-05-01 09:14 | 48.99542 | 2.59504 | 325 ft | 25 kts | 65° |
| 2026-05-01 09:15 | 48.99640 | 2.59692 | 326 ft | 21 kts | 1° |
| 2026-05-01 09:15 | 48.99804 | 2.59674 | 328 ft | 25 kts | 355° |
| 2026-05-01 09:15 | 48.99985 | 2.59653 | 331 ft | 24 kts | 355° |
| 2026-05-01 09:15 | 49.00074 | 2.59601 | 333 ft | 10 kts | 281° |
| 2026-05-01 09:16 | 49.00067 | 2.59379 | 334 ft | 25 kts | 265° |
| 2026-05-01 09:16 | 49.00051 | 2.59097 | 334 ft | 27 kts | 264° |
| 2026-05-01 09:16 | 49.00037 | 2.58797 | 336 ft | 29 kts | 264° |
| 2026-05-01 09:17 | 49.00061 | 2.58317 | 343 ft | 15 kts | 346° |
| 2026-05-01 09:17 | 49.00169 | 2.58310 | 344 ft | 16 kts | 355° |
| 2026-05-01 09:17 | 49.00329 | 2.58305 | 346 ft | 2 kts | 96° |
| 2026-05-01 09:18 | 49.00328 | 2.58401 | 345 ft | 3 kts | 86° |
| 2026-05-01 09:18 | 49.00328 | 2.58399 | 345 ft | 0 kts | 86° |